• Join FlightAware (Why Join?)
  • Login
  • US Flag GB Flag 
21:35 EST


 

Airport Tracker/Info


-or-


 

Live Flight TrackerFlight Track Log ✈ UAL1259 ✈ 20-Apr-2013 ✈ KIAD - KDEN

Flight Track Log - Related Links

Times and Time Zones

All times are in EDT time to prevent confusion due to time zone crossing. See the UAL1259 flight status page for this flight to view local times or setup timezone preferences in your user account.

Time Position Orientation Groundspeed Altitude Reporting Facility
EDT Latitude Longitude Course Direction KTS MPH feet Rate Location/Type
18:00 38.9167 -77.5500 270° West 216 249 3,400  Level Potomac TRACON
18:01 38.8748 -77.8438 262° West  Level FlightAware Approximate
18:01 38.9000 -77.6500 258° West 251 289 7,000  Level Potomac TRACON
18:01 38.8911 -77.6878 253° West 253 291 7,000 1,500 Level Washington Center
18:02 38.8857 -77.9759 288° West  Level FlightAware Approximate
18:02 38.8875 -77.7597 266° West 264 304 9,100  Level Washington Center
18:03 38.9185 -78.1071 288° West  Level FlightAware Approximate
18:03 38.8794 -77.8583 264° West 258 297 13,300  Level Washington Center
18:04 38.9500 -78.2357 270° West  Level FlightAware Approximate
18:04 38.8778 -77.9489 269° West 258 297 16,600  Level Washington Center
18:05 38.9500 -78.3736 270° West  Level FlightAware Approximate
18:05 38.9053 -78.0378 292° West 257 296 17,100  Level Washington Center
18:06 38.9344 -78.1347 291° West 280 322 17,100 1,500 Level Washington Center
18:07 38.9636 -78.2400 290° West 311 358 20,100 2,880 Climbing Washington Center
18:08 38.9650 -78.3628 271° West 311 358 22,900 2,280 Climbing Washington Center
18:09 38.9669 -78.4564 272° West 316 364 24,700 2,160 Climbing Washington Center
18:10 38.9719 -78.5900 273° West 322 371 27,300 1,800 Climbing Washington Center
18:11 38.9750 -78.7131 272° West 334 384 28,300 1,080 Climbing Washington Center
18:12 38.9781 -78.8386 272° West 348 400 29,500 1,380 Climbing Washington Center
18:13 38.9828 -78.9725 273° West 361 415 31,100 1,500 Climbing Washington Center
18:14 38.9872 -79.1061 272° West 371 427 32,500 1,320 Climbing Washington Center
18:15 38.9894 -79.2372 271° West 371 427 33,800 1,200 Climbing Washington Center
18:16 38.9917 -79.3733 271° West 377 434 34,900 1,200 Climbing Washington Center
18:17 38.9956 -79.5072 272° West 377 434 36,200 1,200 Climbing Washington Center
18:18 38.9994 -79.6436 272° West 383 441 37,400 900 Climbing Washington Center
18:19 39.0011 -79.7772 271° West 383 441 38,000 300 Climbing Washington Center
18:20 39.0033 -79.8950 271° West 378 435 38,000  Level Washington Center
18:21 39.0044 -80.0286 271° West 378 435 38,000  Level Washington Center
18:22 39.0078 -80.1625 272° West 378 435 38,000  Level Washington Center
18:23 39.0064 -80.2078 268° West 373 429 38,000  Level Indianapolis Center
18:24 39.0086 -80.3386 271° West 368 423 38,000  Level Indianapolis Center
18:25 39.0097 -80.4714 271° West 369 425 38,000  Level Indianapolis Center
18:26 39.0108 -80.6033 271° West 370 426 38,000  Level Indianapolis Center
18:27 39.0453 -80.7594 286° West 383 441 38,000  Level Indianapolis Center
18:28 39.0761 -80.8919 287° West 387 445 38,000  Level Indianapolis Center
18:29 39.1108 -81.0233 289° West 388 447 38,000  Level Indianapolis Center
18:30 39.1428 -81.1569 287° West 392 451 38,000  Level Indianapolis Center
18:31 39.1750 -81.2889 288° West 390 449 38,000  Level Indianapolis Center
18:32 39.2069 -81.4231 287° West 392 451 38,000  Level Indianapolis Center
18:33 39.2397 -81.5569 288° West 394 453 38,000  Level Indianapolis Center
18:34 39.2786 -81.7175 287° West 394 453 38,000  Level Indianapolis Center
18:35 39.3106 -81.8508 287° West 391 450 38,000  Level Indianapolis Center
18:36 39.3417 -81.9828 287° West 388 447 38,000  Level Indianapolis Center
18:37 39.3722 -82.1139 287° West 384 442 38,000  Level Indianapolis Center
18:38 39.4033 -82.2467 287° West 385 443 38,000  Level Indianapolis Center
18:39 39.4344 -82.3781 287° West 385 443 38,000  Level Indianapolis Center
18:40 39.4669 -82.5194 287° West 390 449 38,000  Level Indianapolis Center
18:41 39.4983 -82.6556 287° West 391 450 38,000  Level Indianapolis Center
18:42 39.5292 -82.7919 286° West 392 451 38,000  Level Indianapolis Center
18:43 39.5606 -82.9278 287° West 391 450 38,000 -60 Level Indianapolis Center
18:44 39.5911 -83.0622 286° West 387 445 37,900 -60 Descending Indianapolis Center
18:45 39.6214 -83.1972 286° West 385 443 37,900  Level Indianapolis Center
18:46 39.6514 -83.3319 286° West 383 441 37,900  Level Indianapolis Center
18:47 39.6817 -83.4669 286° West 381 438 37,900  Level Indianapolis Center
18:48 39.7128 -83.6036 287° West 382 440 38,000  Climbing Indianapolis Center
18:49 39.7417 -83.7378 286° West 381 438 37,900  Descending Indianapolis Center
18:50 39.7711 -83.8733 286° West 384 442 38,000  Climbing Indianapolis Center
18:51 39.8006 -84.0103 286° West 387 445 38,000  Level Indianapolis Center
18:52 39.8358 -84.1689 286° West 389 448 38,000  Level Indianapolis Center
18:53 39.8644 -84.3056 285° West 388 447 38,000 -60 Level Indianapolis Center
18:54 39.8939 -84.4411 286° West 387 445 37,900  Descending Indianapolis Center
18:55 39.9219 -84.5767 285° West 383 441 38,000  Climbing Indianapolis Center
18:56 39.9492 -84.7111 285° West 382 440 37,900 -60 Descending Indianapolis Center
18:57 39.9769 -84.8450 285° West 380 437 37,900  Level Indianapolis Center
18:58 40.0056 -84.9797 286° West 382 440 38,000  Climbing Indianapolis Center
18:59 40.0336 -85.1144 285° West 383 441 38,000  Level Indianapolis Center
19:00 40.0608 -85.2497 285° West 381 438 38,000  Level Indianapolis Center
19:01 40.0889 -85.3856 285° West 383 441 38,000  Level Indianapolis Center
19:02 40.1153 -85.5211 284° West 383 441 38,000  Level Indianapolis Center
19:04 40.1475 -85.6744 285° West 383 441 38,000  Level Chicago Center
19:05 40.1789 -85.8375 284° West 385 443 38,000  Level Chicago Center
19:06 40.2053 -85.9717 284° West 382 440 38,000  Level Chicago Center
19:07 40.2328 -86.1083 285° West 387 445 38,000  Level Chicago Center
19:08 40.2586 -86.2450 284° West 388 447 38,000  Level Chicago Center
19:09 40.2839 -86.3800 284° West 384 442 38,000  Level Chicago Center
19:10 40.3119 -86.5158 285° West 386 444 38,000  Level Chicago Center
19:11 40.3367 -86.6525 283° West 386 444 38,000  Level Chicago Center
19:12 40.3647 -86.8008 284° West 383 441 38,000  Level Chicago Center
19:13 40.3914 -86.9361 285° West 384 442 38,000  Level Chicago Center
19:14 40.4164 -87.0728 284° West 385 443 38,000  Level Chicago Center
19:15 40.4411 -87.2089 283° West 387 445 38,000  Level Chicago Center
19:16 40.4658 -87.3450 283° West 385 443 38,000  Level Chicago Center
19:17 40.4967 -87.5092 284° West 386 444 38,000  Level Chicago Center
19:18 40.5217 -87.6469 283° West 388 447 38,000  Level Chicago Center
19:19 40.5464 -87.7847 283° West 389 448 38,000  Level Chicago Center
19:20 40.5719 -87.9236 284° West 390 449 38,000  Level Chicago Center
19:21 40.5958 -88.0614 283° West 390 449 38,000  Level Chicago Center
19:22 40.6214 -88.2008 284° West 391 450 38,000  Level Chicago Center
19:23 40.6444 -88.3378 283° West 387 445 38,000  Level Chicago Center
19:24 40.6700 -88.4758 284° West 388 447 38,000  Level Chicago Center
19:25 40.6925 -88.6103 282° West 380 437 38,000  Level Chicago Center
19:26 40.7200 -88.7756 282° West 383 441 38,000  Level Chicago Center
19:27 40.7450 -88.9206 283° West 400 460 38,000  Level Chicago Center
19:28 40.7686 -89.0606 283° West 396 456 38,000  Level Chicago Center
19:29 40.7917 -89.2014 282° West 394 453 38,000  Level Chicago Center
19:30 40.8153 -89.3414 283° West 393 452 38,000  Level Chicago Center
19:31 40.8381 -89.4819 282° West 394 453 38,000  Level Chicago Center
19:32 40.8619 -89.6219 283° West 390 449 38,000  Level Chicago Center
19:33 40.8847 -89.7622 282° West 391 450 38,000  Level Chicago Center
19:34 40.9108 -89.9308 282° West 392 451 38,000  Level Chicago Center
19:35 40.9344 -90.0725 282° West 393 452 38,000  Level Chicago Center
19:36 40.9561 -90.2139 282° West 394 453 38,000  Level Chicago Center
19:37 40.9631 -90.3508 274° West 393 452 38,000  Level Chicago Center
19:39 40.9669 -90.4969 272° West 399 459 38,000  Level Chicago Center
19:40 40.9703 -90.6428 272° West 398 458 38,000  Level Chicago Center
19:41 40.9742 -90.8178 272° West 398 458 38,000  Level Chicago Center
19:42 40.9775 -90.9647 272° West 401 461 38,000  Level Chicago Center
19:43 40.9808 -91.1106 272° West 399 459 38,000  Level Chicago Center
19:44 40.9839 -91.2581 272° West 400 460 38,000  Level Chicago Center
19:45 40.9861 -91.4050 271° West 400 460 38,000  Level Chicago Center
19:46 40.9894 -91.5508 272° West 398 458 38,000  Level Chicago Center
19:47 40.9914 -91.6997 271° West 399 459 38,000  Level Chicago Center
19:48 40.9931 -91.8456 271° West 399 459 38,000  Level Chicago Center
19:49 40.9947 -91.9906 271° West 399 459 38,000  Level Chicago Center
19:50 40.9975 -92.1656 271° West 399 459 38,000  Level Chicago Center
19:51 40.9997 -92.3106 271° West 399 459 38,000  Level Chicago Center
19:52 41.0014 -92.4556 271° West 399 459 38,000  Level Chicago Center
19:53 41.0014 -92.6003 270° West 399 459 38,000  Level Chicago Center
19:54 41.0019 -92.7458 270° West 401 461 38,000  Level Chicago Center
19:55 41.0042 -92.8894 271° West 397 457 38,000  Level Chicago Center
19:56 41.0028 -93.0647 269° West 400 460 38,000  Level Chicago Center
19:57 41.0058 -93.2083 272° West 397 457 38,000  Level Chicago Center
19:58 41.0058 -93.3536 270° West 398 458 38,000  Level Chicago Center
19:59 41.0053 -93.4986 270° West 399 459 38,000  Level Chicago Center
20:00 41.0058 -93.6706 270° West 397 457 38,000  Level Minneapolis Center
20:01 41.0056 -93.8158 270° West 397 457 38,000  Level Minneapolis Center
20:02 41.0064 -93.9603 270° West 397 457 38,000  Level Minneapolis Center
20:03 41.0047 -94.1050 269° West 397 457 38,000  Level Minneapolis Center
20:04 41.0036 -94.2494 269° West 397 457 38,000  Level Minneapolis Center
20:05 41.0031 -94.3944 270° West 397 457 38,000  Level Minneapolis Center
20:06 41.0014 -94.5908 269° West 396 456 38,000  Level Minneapolis Center
20:07 40.9989 -94.7378 269° West 398 458 38,000  Level Minneapolis Center
20:08 40.9978 -94.8858 269° West 400 460 38,000  Level Minneapolis Center
20:10 40.9958 -95.0333 269° West 399 459 38,000  Level Minneapolis Center
20:11 40.9944 -95.1797 269° West 399 459 38,000  Level Minneapolis Center
20:12 40.9922 -95.3281 269° West 399 459 38,000  Level Minneapolis Center
20:13 40.9897 -95.4778 269° West 402 463 38,000  Level Minneapolis Center
20:14 40.9867 -95.6269 268° West 405 466 38,000  Level Minneapolis Center
20:15 40.9836 -95.8028 269° West 398 458 38,000  Level Minneapolis Center
20:16 40.9803 -95.9503 268° West 398 458 38,000  Level Minneapolis Center
20:17 40.9769 -96.0981 268° West 399 459 38,000  Level Minneapolis Center
20:18 40.9736 -96.2461 268° West 399 459 38,000  Level Minneapolis Center
20:19 40.9708 -96.3936 269° West 399 459 38,000  Level Minneapolis Center
20:20 40.9664 -96.5425 268° West 401 461 38,000  Level Minneapolis Center
20:21 40.9625 -96.6914 268° West 403 464 38,000  Level Minneapolis Center
20:22 40.9594 -96.8397 268° West 403 464 38,000  Level Minneapolis Center
20:23 40.9544 -96.9897 268° West 406 467 38,000  Level Minneapolis Center
20:24 40.9500 -97.1381 268° West 405 466 38,000  Level Minneapolis Center
20:25 40.9442 -97.2872 267° West 405 466 38,000  Level Minneapolis Center
20:26 40.9389 -97.4536 268° West 404 465 38,000  Level Minneapolis Center
20:27 40.9342 -97.6008 268° West 402 463 38,000  Level Minneapolis Center
20:28 40.9289 -97.7486 267° West 401 461 38,000  Level Minneapolis Center
20:29 40.9233 -97.8950 267° West 400 460 38,000  Level Minneapolis Center
20:30 40.9181 -98.0428 267° West 401 461 38,000  Level Minneapolis Center
20:31 40.9114 -98.1919 267° West 403 464 38,000  Level Minneapolis Center
20:32 40.9053 -98.3397 267° West 402 463 38,000  Level Minneapolis Center
20:33 40.8994 -98.4958 267° West 401 461 38,000  Level Minneapolis Center
20:34 40.8931 -98.6433 267° West 401 461 38,000  Level Minneapolis Center
20:35 40.8867 -98.7906 267° West 402 463 38,000  Level Minneapolis Center
20:36 40.8803 -98.9378 267° West 402 463 38,000  Level Minneapolis Center
20:37 40.8722 -99.0856 266° West 402 463 38,000  Level Minneapolis Center
20:38 40.8642 -99.2664 267° West 407 468 38,000  Level Denver Center
20:39 40.8567 -99.4164 266° West 407 468 38,000  Level Denver Center
20:40 40.8489 -99.5664 266° West 408 470 38,000  Level Denver Center
20:41 40.8417 -99.7178 266° West 411 473 38,000  Level Denver Center
20:42 40.8317 -99.8897 266° West 412 474 38,000  Level Denver Center
20:44 40.8217 -100.0597 266° West 415 478 38,000  Level Denver Center
20:45 40.8114 -100.2300 265° West 418 481 38,000  Level Denver Center
20:46 40.8028 -100.3781 266° West 421 484 38,000  Level Denver Center
20:47 40.7944 -100.5250 266° West 419 482 38,000  Level Denver Center
20:48 40.7800 -100.6983 264° West 428 493 38,000  Level Denver Center
20:49 40.7547 -100.8531 258° West 427 491 38,000  Level Denver Center
20:50 40.7297 -101.0017 258° West 428 493 38,000  Level Denver Center
20:51 40.7014 -101.1725 258° West 426 490 38,000  Level Denver Center
20:52 40.6756 -101.3175 257° West 424 488 38,000  Level Denver Center
20:53 40.6500 -101.4625 257° West 424 488 38,000  Level Denver Center
20:54 40.6211 -101.6303 257° West 422 486 38,000  Level Denver Center
20:55 40.5950 -101.7750 257° West 424 488 38,000  Level Denver Center
20:56 40.5686 -101.9172 256° West 420 483 38,000  Level Denver Center
20:57 40.5372 -102.0833 256° West 419 482 38,000  Level Denver Center
20:58 40.5114 -102.2267 257° West 421 484 38,000  Level Denver Center
20:59 40.4789 -102.3942 256° West 424 488 38,000  Level Denver Center
21:00 40.4522 -102.5381 256° West 425 489 38,000  Level Denver Center
21:01 40.4247 -102.6903 257° West 430 495 38,000 -960 Level Denver Center
21:02 40.3967 -102.8386 256° West 416 479 36,100 -2,580 Descending Denver Center
21:03 40.3675 -102.9889 256° West 421 484 32,800 -3,420 Descending Denver Center
21:04 40.3347 -103.1644 256° West 419 482 29,200 -2,400 Descending Denver Center
21:05 40.3181 -103.2533 256° West 386 444 28,000 -2,520 Descending Denver Center
21:06 40.2836 -103.4239 255° West 362 417 24,100 -3,000 Descending Denver Center
21:07 40.2592 -103.5492 256° West 353 406 21,900 -2,100 Descending Denver Center
21:08 40.2361 -103.6706 256° West 342 394 19,900 -1,860 Descending Denver Center
21:09 40.2108 -103.7956 255° West 346 398 18,200 -1,140 Descending Denver Center
21:10 40.2069 -103.9089 267° West 314 361 17,700 -1,080 Descending Denver Center
21:11 40.2158 -104.0153 276° West 294 338 16,100 -1,560 Descending Denver Center
21:12 40.2256 -104.1208 277° West 293 337 14,600 -1,560 Descending Denver Center
21:13 40.2350 -104.2303 276° West 282 325 13,000 -1,320 Descending Denver Center
21:14 40.2456 -104.3308 278° West 282 325 12,000 -840 Descending Denver Center
21:15 40.2542 -104.4186 277° West 252 290 11,400 -540 Descending Denver Center
21:16 40.2569 -104.5069 272° West 228 262 11,000 -240 Descending Denver Center
21:17 40.2608 -104.5833 274° West 215 247 11,000  Level Denver Center
21:18 40.2206 -104.6331 223° Southwest 216 249 11,000  Level Denver Center
21:19 40.1619 -104.6583 198° South 212 244 11,000 -540 Level Denver Center
21:20 40.1025 -104.6569 179° South 214 246 10,000 -1,080 Descending Denver Center
21:21 40.0431 -104.6581 181° South 214 246 8,900 -1,140 Descending Denver Center
21:22 39.9856 -104.6589 181° South 210 242 7,800 -1,140 Descending Denver Center